Time;durP1;ratioP1;P1;durP2;ratioP2;P2;SDS_P1;SDS_P2;PMS_P1;PMS_P2;Temp;Humidity;BMP_temperature;BMP_pressure;BME280_temperature;BME280_humidity;BME280_pressure;Samples;Min_cycle;Max_cycle;Signal;HPM_P1;HPM_P2
2022/10/20 00:00:57;;;;;;;0.00;0.00;;;7.10;99.90;;;;;;5052677;28;20239;-84
2022/10/20 00:03:26;;;;;;;0.00;0.00;;;7.20;99.90;;;;;;5063110;28;20207;-84
2022/10/20 00:05:55;;;;;;;0.00;0.00;;;7.20;99.90;;;;;;5066766;28;20208;-83
2022/10/20 00:08:23;;;;;;;0.00;0.00;;;7.20;99.90;;;;;;5057905;28;20241;-84
2022/10/20 00:10:54;;;;;;;0.00;0.00;;;7.20;99.90;;;;;;5049545;28;20240;-84
2022/10/20 00:13:23;;;;;;;0.00;0.00;;;7.20;99.90;;;;;;5039980;28;20206;-84
2022/10/20 00:15:52;;;;;;;0.00;0.00;;;7.20;99.90;;;;;;5039628;28;20214;-84
2022/10/20 00:18:23;;;;;;;0.00;0.00;;;7.20;99.90;;;;;;5050376;28;20213;-84
2022/10/20 00:20:53;;;;;;;0.00;0.00;;;7.20;99.90;;;;;;5040200;28;20229;-84
2022/10/20 00:23:22;;;;;;;0.00;0.00;;;7.20;99.90;;;;;;5058917;28;20269;-82
2022/10/20 00:26:00;;;;;;;0.00;0.00;;;7.20;99.90;;;;;;5051469;28;20218;-83
2022/10/20 00:28:28;;;;;;;0.00;0.00;;;7.20;99.90;;;;;;5060073;28;20267;-83
2022/10/20 00:30:56;;;;;;;0.00;0.00;;;7.20;99.90;;;;;;5044401;28;20230;-84
2022/10/20 00:33:26;;;;;;;0.00;0.00;;;7.20;99.90;;;;;;5038949;28;20218;-84
2022/10/20 00:35:53;;;;;;;0.00;0.00;;;7.20;99.90;;;;;;5039489;28;20210;-84
2022/10/20 00:38:21;;;;;;;0.00;0.00;;;7.20;99.90;;;;;;5039393;28;20198;-84
2022/10/20 00:40:49;;;;;;;0.00;0.00;;;7.20;99.90;;;;;;5046570;28;20728;-84
2022/10/20 00:43:17;;;;;;;0.00;0.00;;;7.20;99.90;;;;;;5051383;28;20326;-84
2022/10/20 00:45:52;;;;;;;0.00;0.00;;;7.20;99.90;;;;;;5047785;28;20217;-84
2022/10/20 00:48:25;;;;;;;0.00;0.00;;;7.20;99.90;;;;;;5043634;28;20228;-84
2022/10/20 00:50:56;;;;;;;0.00;0.00;;;7.20;99.90;;;;;;5038830;28;20230;-83
2022/10/20 00:53:38;;;;;;;0.00;0.00;;;7.20;99.90;;;;;;5039383;28;20214;-83
2022/10/20 00:56:07;;;;;;;0.00;0.00;;;7.20;99.90;;;;;;5040281;28;20310;-83
2022/10/20 00:58:38;;;;;;;0.00;0.00;;;7.10;99.90;;;;;;5045046;28;20629;-84
2022/10/20 01:01:06;;;;;;;0.00;0.00;;;7.20;99.90;;;;;;5047970;28;20213;-83
2022/10/20 01:03:46;;;;;;;0.00;0.00;;;7.20;99.90;;;;;;5039120;28;20210;-84
2022/10/20 01:06:18;;;;;;;0.00;0.00;;;7.20;99.90;;;;;;5043427;28;20217;-84
2022/10/20 01:08:46;;;;;;;0.00;0.00;;;7.20;99.90;;;;;;5046079;28;20225;-84
2022/10/20 01:11:31;;;;;;;0.00;0.00;;;7.20;99.90;;;;;;5047734;28;20216;-84
2022/10/20 01:14:21;;;;;;;0.00;0.00;;;7.20;99.90;;;;;;5048623;28;20205;-84
2022/10/20 01:17:06;;;;;;;0.00;0.00;;;7.20;99.90;;;;;;5038190;28;20202;-84
2022/10/20 01:20:24;;;;;;;0.00;0.00;;;7.20;99.90;;;;;;5045944;28;20226;-84
2022/10/20 01:23:28;;;;;;;0.00;0.00;;;7.20;99.90;;;;;;5038269;28;20258;-84
2022/10/20 01:26:16;;;;;;;0.00;0.00;;;7.20;99.90;;;;;;5038721;28;20214;-83
2022/10/20 01:28:53;;;;;;;0.00;0.00;;;7.20;99.90;;;;;;5060830;28;20217;-83
2022/10/20 01:31:28;;;;;;;0.00;0.00;;;7.20;99.90;;;;;;5042618;28;20208;-82
2022/10/20 01:34:04;;;;;;;0.00;0.00;;;7.20;99.90;;;;;;5056242;28;20201;-83
2022/10/20 01:36:39;;;;;;;0.00;0.00;;;7.20;99.90;;;;;;5041345;28;20265;-84
2022/10/20 01:39:11;;;;;;;0.00;0.00;;;7.20;99.90;;;;;;5050928;28;20684;-83
2022/10/20 01:41:43;;;;;;;0.00;0.00;;;7.20;99.90;;;;;;5046464;28;20263;-84
2022/10/20 01:44:16;;;;;;;0.00;0.00;;;7.20;99.90;;;;;;5046491;28;20210;-84
2022/10/20 01:46:44;;;;;;;0.00;0.00;;;7.20;99.90;;;;;;5048704;28;20209;-83
2022/10/20 01:49:14;;;;;;;0.00;0.00;;;7.20;99.90;;;;;;5044609;28;20231;-82
2022/10/20 01:51:42;;;;;;;0.00;0.00;;;7.20;99.90;;;;;;5042023;28;20206;-83
2022/10/20 01:54:20;;;;;;;0.00;0.00;;;7.20;99.90;;;;;;5042174;28;20206;-83
2022/10/20 01:56:58;;;;;;;0.00;0.00;;;7.10;99.90;;;;;;5037041;28;20198;-84
2022/10/20 01:59:47;;;;;;;0.00;0.00;;;7.20;99.90;;;;;;5046377;28;20237;-83
2022/10/20 02:02:33;;;;;;;0.00;0.00;;;7.10;99.90;;;;;;5036704;28;20205;-82
2022/10/20 02:05:22;;;;;;;0.00;0.00;;;7.10;99.90;;;;;;5044003;28;20198;-83
2022/10/20 02:07:51;;;;;;;0.00;0.00;;;7.10;99.90;;;;;;5036946;28;20223;-83
2022/10/20 02:10:24;;;;;;;0.00;0.00;;;7.00;99.90;;;;;;5036573;28;20228;-83
2022/10/20 02:12:57;;;;;;;0.00;0.00;;;6.90;99.90;;;;;;5038495;28;20268;-83
2022/10/20 02:18:46;;;;;;;0.00;0.00;;;6.90;99.90;;;;;;5792444;22;20229;-73
2022/10/20 02:21:16;;;;;;;0.00;0.00;;;6.90;99.90;;;;;;5029037;28;20238;-73
2022/10/20 02:23:47;;;;;;;0.00;0.00;;;6.80;99.90;;;;;;5021192;28;20288;-73
2022/10/20 02:26:19;;;;;;;0.00;0.00;;;6.80;99.90;;;;;;5020273;28;20614;-74
2022/10/20 02:28:52;;;;;;;0.00;0.00;;;6.80;99.90;;;;;;5019356;28;20239;-74
2022/10/20 02:31:20;;;;;;;0.00;0.00;;;6.70;99.90;;;;;;5014813;28;20229;-73
2022/10/20 02:33:50;;;;;;;0.00;0.00;;;6.70;99.90;;;;;;5020602;28;20607;-73
2022/10/20 02:36:20;;;;;;;0.00;0.00;;;6.70;99.90;;;;;;5019163;28;20210;-73
2022/10/20 02:38:48;;;;;;;0.00;0.00;;;6.60;99.90;;;;;;5020949;28;20211;-73
2022/10/20 02:41:15;;;;;;;0.00;0.00;;;6.60;99.90;;;;;;5022609;28;20230;-74
2022/10/20 02:43:43;;;;;;;0.00;0.00;;;6.50;99.90;;;;;;5031253;28;20203;-74
2022/10/20 02:46:11;;;;;;;0.00;0.00;;;6.50;99.90;;;;;;5027842;28;20217;-74
2022/10/20 02:48:39;;;;;;;0.00;0.00;;;6.40;99.90;;;;;;5016992;28;20675;-75
2022/10/20 02:51:08;;;;;;;0.00;0.00;;;6.30;99.90;;;;;;5021695;28;20227;-75
2022/10/20 02:53:35;;;;;;;0.00;0.00;;;6.30;99.90;;;;;;5019760;28;20215;-75
2022/10/20 02:56:03;;;;;;;0.00;0.00;;;6.30;99.90;;;;;;5019006;28;20219;-74
2022/10/20 02:58:31;;;;;;;0.00;0.00;;;6.30;99.90;;;;;;5016411;28;20662;-84
2022/10/20 03:00:59;;;;;;;0.00;0.00;;;6.30;99.90;;;;;;5023834;28;20229;-81
2022/10/20 03:03:27;;;;;;;0.00;0.00;;;6.30;99.90;;;;;;5026938;28;20210;-81
2022/10/20 03:05:54;;;;;;;0.00;0.00;;;6.40;99.90;;;;;;5018234;28;20226;-75
2022/10/20 03:08:23;;;;;;;0.00;0.00;;;6.40;99.90;;;;;;5013772;28;20223;-74
2022/10/20 03:10:51;;;;;;;0.00;0.00;;;6.30;99.90;;;;;;5013530;28;20341;-74
2022/10/20 03:13:19;;;;;;;0.00;0.00;;;6.30;99.90;;;;;;5019565;28;20210;-74
2022/10/20 03:15:47;;;;;;;0.00;0.00;;;6.20;99.90;;;;;;5017622;28;20294;-74
2022/10/20 03:18:14;;;;;;;0.00;0.00;;;6.20;99.90;;;;;;5020070;28;20207;-75
2022/10/20 03:20:43;;;;;;;0.00;0.00;;;6.20;99.90;;;;;;5017588;28;20262;-75
2022/10/20 03:23:11;;;;;;;0.00;0.00;;;6.10;99.90;;;;;;5015828;28;20218;-74
2022/10/20 03:25:44;;;;;;;0.00;0.00;;;6.10;99.90;;;;;;5020077;28;20280;-74
2022/10/20 03:28:12;;;;;;;0.00;0.00;;;6.10;99.90;;;;;;5012353;28;20671;-74
2022/10/20 03:30:39;;;;;;;0.00;0.00;;;6.10;99.90;;;;;;5016149;28;20226;-74
2022/10/20 03:33:07;;;;;;;0.00;0.00;;;6.10;99.90;;;;;;5023857;28;20214;-74
2022/10/20 03:35:35;;;;;;;0.00;0.00;;;6.00;99.90;;;;;;5025643;28;20203;-74
2022/10/20 03:38:02;;;;;;;0.00;0.00;;;6.00;99.90;;;;;;5016583;28;20690;-74
2022/10/20 03:40:30;;;;;;;0.00;0.00;;;6.00;99.90;;;;;;5019543;28;20230;-74
2022/10/20 03:42:59;;;;;;;0.00;0.00;;;6.00;99.90;;;;;;5024206;28;20213;-74
2022/10/20 03:45:27;;;;;;;0.00;0.00;;;6.00;99.90;;;;;;5022042;28;20690;-74
2022/10/20 03:47:55;;;;;;;0.00;0.00;;;5.90;99.90;;;;;;5016895;28;20211;-74
2022/10/20 03:50:22;;;;;;;0.00;0.00;;;5.90;99.90;;;;;;5016894;28;20247;-74
2022/10/20 03:52:50;;;;;;;0.00;0.00;;;5.90;99.90;;;;;;5028390;28;20735;-72
2022/10/20 03:55:19;;;;;;;0.00;0.00;;;5.90;99.90;;;;;;5026570;28;20264;-72
2022/10/20 03:57:47;;;;;;;0.00;0.00;;;5.90;99.90;;;;;;5022122;28;20198;-72
2022/10/20 04:00:16;;;;;;;0.00;0.00;;;5.90;99.90;;;;;;5020864;28;20269;-72
2022/10/20 04:02:45;;;;;;;0.00;0.00;;;5.80;99.90;;;;;;5022080;28;20203;-72
2022/10/20 04:05:15;;;;;;;0.00;0.00;;;5.90;99.90;;;;;;5020120;28;20265;-72
2022/10/20 04:07:43;;;;;;;0.00;0.00;;;5.90;99.90;;;;;;5021465;28;20625;-72
2022/10/20 04:10:12;;;;;;;0.00;0.00;;;5.90;99.90;;;;;;5023504;28;20238;-72
2022/10/20 04:12:39;;;;;;;0.00;0.00;;;5.80;99.90;;;;;;5024348;28;20563;-72
2022/10/20 04:15:08;;;;;;;0.00;0.00;;;5.90;99.90;;;;;;5022050;28;20233;-72
2022/10/20 04:17:37;;;;;;;0.00;0.00;;;5.90;99.90;;;;;;5024158;28;20577;-72
2022/10/20 04:20:08;;;;;;;0.00;0.00;;;5.80;99.90;;;;;;5025107;28;20226;-72
2022/10/20 04:22:36;;;;;;;0.00;0.00;;;5.80;99.90;;;;;;5023181;28;20214;-71
2022/10/20 04:25:05;;;;;;;0.00;0.00;;;5.80;99.90;;;;;;5021754;28;20225;-72
2022/10/20 04:27:33;;;;;;;0.00;0.00;;;5.80;99.90;;;;;;5014235;28;20219;-71
2022/10/20 04:30:01;;;;;;;0.00;0.00;;;5.80;99.90;;;;;;5025622;28;20299;-72
2022/10/20 04:32:29;;;;;;;0.00;0.00;;;5.80;99.90;;;;;;5022349;28;20215;-73
2022/10/20 04:34:58;;;;;;;0.00;0.00;;;5.80;99.90;;;;;;5022862;28;20227;-73
2022/10/20 04:37:26;;;;;;;0.00;0.00;;;5.80;99.90;;;;;;5020566;28;20640;-72
2022/10/20 04:39:56;;;;;;;0.00;0.00;;;5.80;99.90;;;;;;5017647;28;20202;-74
2022/10/20 04:42:24;;;;;;;0.00;0.00;;;5.80;99.90;;;;;;5019284;28;20310;-74
2022/10/20 04:44:52;;;;;;;0.00;0.00;;;5.80;99.90;;;;;;5022430;28;20211;-74
2022/10/20 04:47:20;;;;;;;0.00;0.00;;;5.80;99.90;;;;;;5017774;28;20666;-74
2022/10/20 04:49:47;;;;;;;0.00;0.00;;;5.80;99.90;;;;;;5023172;28;20226;-74
2022/10/20 04:52:19;;;;;;;0.00;0.00;;;5.80;99.90;;;;;;5026935;28;20229;-74
2022/10/20 04:54:47;;;;;;;0.00;0.00;;;5.80;99.90;;;;;;5027052;28;20215;-74
2022/10/20 04:57:15;;;;;;;0.00;0.00;;;5.80;99.90;;;;;;5021470;28;20211;-74
2022/10/20 04:59:42;;;;;;;0.00;0.00;;;5.70;99.90;;;;;;5021703;28;20265;-74
2022/10/20 05:02:10;;;;;;;0.00;0.00;;;5.80;99.90;;;;;;5024622;28;20206;-75
2022/10/20 05:04:38;;;;;;;0.00;0.00;;;5.80;99.90;;;;;;5020666;28;20306;-74
2022/10/20 05:07:06;;;;;;;0.00;0.00;;;5.80;99.90;;;;;;5016835;28;20257;-74
2022/10/20 05:09:35;;;;;;;0.00;0.00;;;5.80;99.90;;;;;;5016960;28;20276;-74
2022/10/20 05:12:03;;;;;;;0.00;0.00;;;5.80;99.90;;;;;;5021712;28;20234;-74
2022/10/20 05:14:31;;;;;;;0.00;0.00;;;5.80;99.90;;;;;;5019702;28;20206;-74
2022/10/20 05:16:58;;;;;;;0.00;0.00;;;5.80;99.90;;;;;;5023137;28;20210;-74
2022/10/20 05:19:26;;;;;;;0.00;0.00;;;5.80;99.90;;;;;;5015888;28;20348;-74
2022/10/20 05:21:54;;;;;;;0.00;0.00;;;5.80;99.90;;;;;;5020291;28;20744;-74
2022/10/20 05:24:22;;;;;;;0.00;0.00;;;5.80;99.90;;;;;;5022936;28;20600;-74
2022/10/20 05:26:57;;;;;;;0.00;0.00;;;5.80;99.90;;;;;;5022358;28;20565;-74
2022/10/20 05:29:24;;;;;;;0.00;0.00;;;5.80;99.90;;;;;;5021401;28;20659;-73
2022/10/20 05:31:52;;;;;;;0.00;0.00;;;5.80;99.90;;;;;;5023820;28;20667;-73
2022/10/20 05:34:20;;;;;;;0.00;0.00;;;5.90;99.90;;;;;;5022975;28;20665;-73
2022/10/20 05:36:47;;;;;;;0.00;0.00;;;5.90;99.90;;;;;;5025612;28;20195;-74
2022/10/20 05:39:15;;;;;;;0.00;0.00;;;6.00;99.90;;;;;;5023157;28;20214;-74
2022/10/20 05:41:43;;;;;;;0.00;0.00;;;6.00;99.90;;;;;;5023489;28;20227;-74
2022/10/20 05:44:13;;;;;;;0.00;0.00;;;6.00;99.90;;;;;;5022058;28;20199;-75
2022/10/20 05:46:41;;;;;;;0.00;0.00;;;6.00;99.90;;;;;;5024099;28;20194;-74
2022/10/20 05:49:14;;;;;;;0.00;0.00;;;6.00;99.90;;;;;;5021311;28;20210;-74
2022/10/20 05:51:42;;;;;;;0.00;0.00;;;6.00;99.90;;;;;;5022707;28;20229;-74
2022/10/20 05:54:11;;;;;;;0.00;0.00;;;6.00;99.90;;;;;;5023029;28;20211;-74
2022/10/20 05:56:40;;;;;;;0.00;0.00;;;6.00;99.90;;;;;;5024865;28;20207;-74
2022/10/20 05:59:08;;;;;;;0.00;0.00;;;6.00;99.90;;;;;;5021696;28;20203;-74
2022/10/20 06:01:46;;;;;;;0.00;0.00;;;6.00;99.90;;;;;;5023036;28;20223;-74
2022/10/20 06:04:16;;;;;;;0.00;0.00;;;5.90;99.90;;;;;;5022786;28;20206;-74
2022/10/20 06:06:44;;;;;;;0.00;0.00;;;5.90;99.90;;;;;;5022703;28;20261;-74
2022/10/20 06:09:12;;;;;;;0.00;0.00;;;5.90;99.90;;;;;;5022593;28;20268;-74
2022/10/20 06:11:40;;;;;;;0.00;0.00;;;5.90;99.90;;;;;;5022537;28;20223;-74
2022/10/20 06:14:08;;;;;;;0.00;0.00;;;5.90;99.90;;;;;;5019899;28;20199;-74
2022/10/20 06:16:38;;;;;;;0.00;0.00;;;5.90;99.90;;;;;;5018495;28;20207;-74
2022/10/20 06:19:08;;;;;;;0.00;0.00;;;5.90;99.90;;;;;;5019404;28;20206;-85
2022/10/20 06:21:37;;;;;;;0.00;0.00;;;5.90;99.90;;;;;;5025248;28;20234;-85
2022/10/20 06:24:06;;;;;;;0.00;0.00;;;6.00;99.90;;;;;;5022201;28;20220;-84
2022/10/20 06:26:36;;;;;;;0.00;0.00;;;6.10;99.90;;;;;;5022678;28;20752;-79
2022/10/20 06:29:05;;;;;;;0.00;0.00;;;6.10;99.90;;;;;;5017509;28;20218;-78
2022/10/20 06:31:37;;;;;;;0.00;0.00;;;6.20;99.90;;;;;;5026300;28;20281;-79
2022/10/20 06:34:13;;;;;;;0.00;0.00;;;6.20;99.90;;;;;;5025859;28;20210;-79
2022/10/20 06:36:43;;;;;;;0.00;0.00;;;6.30;99.90;;;;;;5026389;28;20214;-79
2022/10/20 06:39:14;;;;;;;0.00;0.00;;;6.40;99.90;;;;;;5025491;28;20680;-79
2022/10/20 06:41:42;;;;;;;0.00;0.00;;;6.40;99.90;;;;;;5022236;28;20219;-82
2022/10/20 06:44:10;;;;;;;0.00;0.00;;;6.40;99.90;;;;;;5023072;28;20222;-83
2022/10/20 06:46:38;;;;;;;0.00;0.00;;;6.50;99.90;;;;;;5026743;28;20226;-82
2022/10/20 06:49:07;;;;;;;0.00;0.00;;;6.50;99.90;;;;;;5023714;28;20198;-82
2022/10/20 06:51:36;;;;;;;0.00;0.00;;;6.50;99.90;;;;;;5027263;28;20222;-82
2022/10/20 06:54:04;;;;;;;0.00;0.00;;;6.60;99.90;;;;;;5021644;28;20596;-81
2022/10/20 06:56:34;;;;;;;0.00;0.00;;;6.70;99.90;;;;;;5031891;28;20199;-82
2022/10/20 06:59:03;;;;;;;0.00;0.00;;;6.70;99.90;;;;;;5029978;28;20198;-81
2022/10/20 07:01:34;;;;;;;0.00;0.00;;;6.70;99.90;;;;;;5029765;28;20223;-82
2022/10/20 07:04:04;;;;;;;0.00;0.00;;;6.80;99.90;;;;;;5039170;28;20195;-82
2022/10/20 07:06:39;;;;;;;0.00;0.00;;;6.80;99.90;;;;;;5040506;28;20245;-80
2022/10/20 07:09:11;;;;;;;0.00;0.00;;;6.80;99.90;;;;;;5033569;28;20670;-82
2022/10/20 07:11:39;;;;;;;0.00;0.00;;;6.90;99.90;;;;;;5027250;28;20234;-81
2022/10/20 07:14:07;;;;;;;0.00;0.00;;;7.00;99.90;;;;;;5027219;28;20210;-82
2022/10/20 07:16:35;;;;;;;0.00;0.00;;;7.00;99.90;;;;;;5023172;28;20677;-82
2022/10/20 07:19:04;;;;;;;0.00;0.00;;;7.10;99.90;;;;;;5032263;28;20202;-80
2022/10/20 07:21:32;;;;;;;0.00;0.00;;;7.10;99.90;;;;;;5029197;28;20237;-79
2022/10/20 07:24:08;;;;;;;0.00;0.00;;;7.20;99.90;;;;;;5021703;28;20207;-82
2022/10/20 07:26:38;;;;;;;0.00;0.00;;;7.30;99.90;;;;;;5024918;28;20213;-81
2022/10/20 07:29:05;;;;;;;0.00;0.00;;;7.30;99.90;;;;;;5025180;28;20233;-83
2022/10/20 07:31:36;;;;;;;0.00;0.00;;;7.40;99.90;;;;;;5025845;28;20238;-81
2022/10/20 07:34:05;;;;;;;0.00;0.00;;;7.60;99.90;;;;;;5029138;28;20229;-80
2022/10/20 07:36:52;;;;;;;0.00;0.00;;;7.70;99.90;;;;;;5029386;28;20274;-80
2022/10/20 07:39:21;;;;;;;0.00;0.00;;;7.70;99.90;;;;;;5022470;28;20673;-81
2022/10/20 07:41:49;;;;;;;0.00;0.00;;;7.80;99.90;;;;;;5030503;28;20253;-81
2022/10/20 07:44:17;;;;;;;0.00;0.00;;;7.90;99.90;;;;;;5022472;28;20271;-83
2022/10/20 07:46:45;;;;;;;0.00;0.00;;;8.00;99.90;;;;;;5022874;28;20272;-81
2022/10/20 07:49:13;;;;;;;0.00;0.00;;;8.10;99.90;;;;;;5023634;28;20563;-81
2022/10/20 07:52:00;;;;;;;0.00;0.00;;;8.20;99.90;;;;;;5033044;28;20280;-81
2022/10/20 07:54:30;;;;;;;0.00;0.00;;;8.30;99.90;;;;;;5037660;28;20206;-81
2022/10/20 07:56:58;;;;;;;0.00;0.00;;;8.40;99.90;;;;;;5037738;28;20637;-81
2022/10/20 07:59:26;;;;;;;0.00;0.00;;;8.40;99.90;;;;;;5029816;28;20620;-81
2022/10/20 08:01:53;;;;;;;0.00;0.00;;;8.50;99.90;;;;;;5021472;28;20222;-81
2022/10/20 08:04:25;;;;;;;0.00;0.00;;;8.50;99.90;;;;;;5031884;28;20681;-82
2022/10/20 08:06:53;;;;;;;0.00;0.00;;;8.60;99.90;;;;;;5021652;28;20210;-80
2022/10/20 08:09:21;;;;;;;0.00;0.00;;;8.60;99.90;;;;;;5026694;28;20590;-80
2022/10/20 08:11:51;;;;;;;0.00;0.00;;;8.60;99.90;;;;;;5031347;28;20277;-80
2022/10/20 08:14:25;;;;;;;0.00;0.00;;;8.70;99.90;;;;;;5029443;28;20199;-79
2022/10/20 08:16:53;;;;;;;0.00;0.00;;;8.80;99.90;;;;;;5027033;28;20202;-80
2022/10/20 08:19:24;;;;;;;0.00;0.00;;;8.90;99.90;;;;;;5024109;28;20284;-80
2022/10/20 08:22:05;;;;;;;0.00;0.00;;;8.90;99.90;;;;;;5007849;28;20320;-80
2022/10/20 08:24:33;;;;;;;0.00;0.00;;;9.10;99.90;;;;;;5018664;28;20238;-81
2022/10/20 08:27:02;;;;;;;0.00;0.00;;;9.20;99.90;;;;;;5023115;28;20203;-77
2022/10/20 08:29:30;;;;;;;0.00;0.00;;;9.30;99.90;;;;;;5017270;28;20222;-78
2022/10/20 08:31:58;;;;;;;0.00;0.00;;;9.40;99.90;;;;;;5024534;28;20229;-79
2022/10/20 08:34:26;;;;;;;0.00;0.00;;;9.50;99.90;;;;;;5022793;28;20221;-79
2022/10/20 08:36:54;;;;;;;0.00;0.00;;;9.60;99.90;;;;;;5022510;28;20207;-78
2022/10/20 08:39:21;;;;;;;0.00;0.00;;;9.70;99.90;;;;;;5025775;28;20583;-78
2022/10/20 08:41:51;;;;;;;0.00;0.00;;;9.70;99.90;;;;;;5024286;28;20277;-78
2022/10/20 08:44:39;;;;;;;0.00;0.00;;;9.80;99.90;;;;;;5024990;28;20769;-78
2022/10/20 08:47:20;;;;;;;0.00;0.00;;;9.80;99.90;;;;;;5019688;28;20214;-79
2022/10/20 08:49:47;;;;;;;0.00;0.00;;;9.90;99.90;;;;;;5021604;28;20436;-74
2022/10/20 08:52:17;;;;;;;0.00;0.00;;;10.00;99.90;;;;;;5022802;28;20508;-74
2022/10/20 08:54:46;;;;;;;0.00;0.00;;;10.00;99.90;;;;;;5019992;28;20210;-75
2022/10/20 08:57:22;;;;;;;0.00;0.00;;;10.00;99.90;;;;;;5019449;28;20221;-75
2022/10/20 08:59:53;;;;;;;0.00;0.00;;;10.10;99.90;;;;;;5021158;28;20275;-75
2022/10/20 09:02:22;;;;;;;0.00;0.00;;;10.20;99.90;;;;;;5021053;28;20457;-75
2022/10/20 09:04:53;;;;;;;0.00;0.00;;;10.30;99.90;;;;;;5023916;28;20213;-74
2022/10/20 09:07:25;;;;;;;0.00;0.00;;;10.30;99.90;;;;;;5018241;28;20221;-74
2022/10/20 09:09:57;;;;;;;0.00;0.00;;;10.40;99.90;;;;;;5022351;28;20540;-74
2022/10/20 09:12:26;;;;;;;0.00;0.00;;;10.40;99.90;;;;;;5023350;28;20478;-73
2022/10/20 09:14:59;;;;;;;0.00;0.00;;;10.50;99.90;;;;;;5019700;28;20449;-74
2022/10/20 09:17:27;;;;;;;0.00;0.00;;;10.60;99.90;;;;;;5015977;28;20953;-74
2022/10/20 09:19:59;;;;;;;0.00;0.00;;;10.60;99.90;;;;;;5016171;28;20442;-74
2022/10/20 09:22:30;;;;;;;0.00;0.00;;;10.70;99.90;;;;;;5016241;28;20449;-74
2022/10/20 09:25:03;;;;;;;0.00;0.00;;;10.70;99.90;;;;;;5015168;28;20524;-75
2022/10/20 09:27:34;;;;;;;0.00;0.00;;;10.70;99.90;;;;;;5023695;28;20449;-75
2022/10/20 09:30:16;;;;;;;0.00;0.00;;;10.80;99.90;;;;;;5016549;28;20455;-75
2022/10/20 09:32:44;;;;;;;0.00;0.00;;;10.80;99.90;;;;;;5024678;28;20558;-75
2022/10/20 09:35:26;;;;;;;0.00;0.00;;;10.80;99.90;;;;;;5017655;28;20441;-73
2022/10/20 09:38:01;;;;;;;0.00;0.00;;;10.80;99.90;;;;;;5016730;28;20822;-73
2022/10/20 09:40:30;;;;;;;0.00;0.00;;;10.80;99.90;;;;;;5022111;28;20512;-73
2022/10/20 09:43:02;;;;;;;0.00;0.00;;;10.80;99.90;;;;;;5020134;28;20442;-73
2022/10/20 09:45:33;;;;;;;0.00;0.00;;;10.90;99.90;;;;;;5019150;28;20500;-73
2022/10/20 09:48:05;;;;;;;0.00;0.00;;;10.90;99.90;;;;;;5020323;28;20441;-73
2022/10/20 09:50:36;;;;;;;0.00;0.00;;;10.90;99.90;;;;;;5017514;28;20482;-73
2022/10/20 09:53:07;;;;;;;0.00;0.00;;;10.90;99.90;;;;;;5018791;28;20482;-73
2022/10/20 09:55:41;;;;;;;0.00;0.00;;;10.90;99.90;;;;;;5014847;28;20806;-74
2022/10/20 09:58:18;;;;;;;0.00;0.00;;;10.90;99.90;;;;;;5017789;28;20830;-74
2022/10/20 10:00:57;;;;;;;0.00;0.00;;;11.00;99.90;;;;;;5021788;28;20465;-74
2022/10/20 10:03:25;;;;;;;0.00;0.00;;;11.00;99.90;;;;;;5018907;28;20452;-73
2022/10/20 10:05:54;;;;;;;0.00;0.00;;;11.10;99.90;;;;;;5017214;28;20788;-72
2022/10/20 10:08:25;;;;;;;0.00;0.00;;;11.20;99.90;;;;;;5020467;28;20550;-73
2022/10/20 10:11:01;;;;;;;0.00;0.00;;;11.20;99.90;;;;;;5022456;28;20483;-73
2022/10/20 10:13:31;;;;;;;0.00;0.00;;;11.40;99.90;;;;;;5021480;28;20492;-72
2022/10/20 10:16:03;;;;;;;0.00;0.00;;;11.40;99.90;;;;;;5020832;28;20507;-72
2022/10/20 10:18:31;;;;;;;0.00;0.00;;;11.50;99.90;;;;;;5035821;28;20452;-72
2022/10/20 10:21:02;;;;;;;0.00;0.00;;;11.50;99.90;;;;;;5025404;28;20532;-72
2022/10/20 10:23:35;;;;;;;0.00;0.00;;;11.60;99.90;;;;;;5020080;28;20814;-72
2022/10/20 10:26:23;;;;;;;0.00;0.00;;;11.50;99.90;;;;;;5015200;28;20459;-72
2022/10/20 10:28:59;;;;;;;0.00;0.00;;;11.50;99.90;;;;;;5015154;28;20446;-73
2022/10/20 10:31:27;;;;;;;0.00;0.00;;;11.60;99.90;;;;;;5020146;28;20477;-70
2022/10/20 10:34:06;;;;;;;0.00;0.00;;;11.60;99.90;;;;;;5020913;28;21000;-73
2022/10/20 10:36:36;;;;;;;0.00;0.00;;;11.60;99.90;;;;;;5016200;28;20507;-72
2022/10/20 10:39:06;;;;;;;0.00;0.00;;;11.70;99.90;;;;;;5016915;28;20839;-72
2022/10/20 10:42:02;;;;;;;0.00;0.00;;;11.70;99.90;;;;;;5023454;28;21012;-72
2022/10/20 10:44:43;;;;;;;0.00;0.00;;;11.80;99.90;;;;;;5023754;28;20446;-73
2022/10/20 10:47:28;;;;;;;0.00;0.00;;;11.90;99.90;;;;;;5019959;28;20576;-73
2022/10/20 10:50:12;;;;;;;0.00;0.00;;;12.10;99.90;;;;;;5020080;28;20472;-71
2022/10/20 10:52:48;;;;;;;0.00;0.00;;;12.10;99.90;;;;;;5022375;28;20477;-72
2022/10/20 10:55:21;;;;;;;0.00;0.00;;;12.10;99.90;;;;;;5018702;28;20449;-72
2022/10/20 10:58:18;;;;;;;0.00;0.00;;;12.10;99.90;;;;;;5020908;28;20487;-73
2022/10/20 11:00:58;;;;;;;0.00;0.00;;;12.10;99.90;;;;;;5017339;28;20989;-73
2022/10/20 11:03:48;;;;;;;0.00;0.00;;;12.10;99.90;;;;;;5020504;28;20487;-72
2022/10/20 11:06:24;;;;;;;0.00;0.00;;;12.00;99.90;;;;;;5015390;28;20458;-73
2022/10/20 11:09:14;;;;;;;0.00;0.00;;;12.10;99.90;;;;;;5020289;28;20471;-73
2022/10/20 11:11:51;;;;;;;0.00;0.00;;;12.10;99.90;;;;;;5014502;28;21060;-72
2022/10/20 11:14:28;;;;;;;0.00;0.00;;;12.10;99.90;;;;;;5017739;28;20488;-73
2022/10/20 11:17:16;;;;;;;0.00;0.00;;;12.10;99.90;;;;;;5019855;28;20460;-72
2022/10/20 11:20:18;;;;;;;0.00;0.00;;;12.10;99.90;;;;;;5019773;28;20552;-72
2022/10/20 11:23:02;;;;;;;0.00;0.00;;;12.10;99.90;;;;;;5017531;28;20838;-72
2022/10/20 11:25:34;;;;;;;0.00;0.00;;;12.20;99.90;;;;;;5017723;28;20999;-72
2022/10/20 11:28:02;;;;;;;0.00;0.00;;;12.20;99.90;;;;;;5018600;28;20606;-73
2022/10/20 11:30:33;;;;;;;0.00;0.00;;;12.20;99.90;;;;;;5015014;28;20538;-72
2022/10/20 11:33:11;;;;;;;0.00;0.00;;;12.20;99.90;;;;;;5017578;28;20478;-72
2022/10/20 11:35:44;;;;;;;0.00;0.00;;;12.30;99.90;;;;;;5019757;28;20909;-73
2022/10/20 11:38:18;;;;;;;0.00;0.00;;;12.30;99.90;;;;;;5021563;28;20522;-73
2022/10/20 11:40:59;;;;;;;0.00;0.00;;;12.30;99.90;;;;;;5018967;28;20885;-72
2022/10/20 11:43:32;;;;;;;0.00;0.00;;;12.40;99.90;;;;;;5017335;28;20446;-74
2022/10/20 11:46:04;;;;;;;0.00;0.00;;;12.50;99.90;;;;;;5019361;28;20466;-75
2022/10/20 11:48:40;;;;;;;0.00;0.00;;;12.50;99.90;;;;;;5019523;28;20458;-78
2022/10/20 11:51:40;;;;;;;0.00;0.00;;;12.60;99.90;;;;;;5016333;28;20532;-74
2022/10/20 11:54:37;;;;;;;0.00;0.00;;;12.70;99.90;;;;;;5018113;28;20977;-75
2022/10/20 11:57:17;;;;;;;0.00;0.00;;;12.70;99.90;;;;;;5023537;28;20449;-74
2022/10/20 12:00:03;;;;;;;0.00;0.00;;;12.80;99.90;;;;;;5025412;28;20453;-74
2022/10/20 12:03:01;;;;;;;0.00;0.00;;;12.90;99.90;;;;;;5019527;28;20464;-76
2022/10/20 12:05:52;;;;;;;0.00;0.00;;;13.00;99.90;;;;;;5019898;28;20530;-75
2022/10/20 12:08:36;;;;;;;0.00;0.00;;;13.00;99.90;;;;;;5023303;28;20453;-75
2022/10/20 12:11:13;;;;;;;0.00;0.00;;;13.00;99.90;;;;;;5022092;28;20478;-77
2022/10/20 12:13:53;;;;;;;0.00;0.00;;;13.00;99.90;;;;;;5020294;28;20484;-73
2022/10/20 12:16:58;;;;;;;0.00;0.00;;;13.10;99.90;;;;;;5022573;28;20446;-74
2022/10/20 12:19:28;;;;;;;0.00;0.00;;;13.10;99.90;;;;;;5023896;28;20510;-74
2022/10/20 12:21:59;;;;;;;0.00;0.00;;;13.10;99.90;;;;;;5022335;28;20554;-74
2022/10/20 12:24:34;;;;;;;0.00;0.00;;;13.10;99.90;;;;;;5023425;28;20495;-73
2022/10/20 12:27:17;;;;;;;0.00;0.00;;;13.20;99.90;;;;;;5022835;28;20456;-73
2022/10/20 12:29:53;;;;;;;0.00;0.00;;;13.20;99.90;;;;;;5038205;28;20467;-73
2022/10/20 12:32:42;;;;;;;0.00;0.00;;;13.30;99.90;;;;;;5028260;28;20458;-74
2022/10/20 12:35:51;;;;;;;0.00;0.00;;;13.30;99.90;;;;;;5023841;28;20503;-73
2022/10/20 12:38:22;;;;;;;0.00;0.00;;;13.20;99.90;;;;;;5022528;28;20468;-73
2022/10/20 12:40:54;;;;;;;0.00;0.00;;;13.20;99.90;;;;;;5017222;28;20457;-73
2022/10/20 12:43:47;;;;;;;0.00;0.00;;;13.20;99.90;;;;;;5017176;28;20488;-73
2022/10/20 12:46:21;;;;;;;0.00;0.00;;;13.20;99.90;;;;;;5023254;28;20433;-73
2022/10/20 12:48:56;;;;;;;0.00;0.00;;;13.30;99.90;;;;;;5024443;28;20959;-74
2022/10/20 12:51:32;;;;;;;0.00;0.00;;;13.20;99.90;;;;;;5020368;28;20607;-73
2022/10/20 12:54:07;;;;;;;0.00;0.00;;;13.20;99.90;;;;;;5021623;28;20543;-73
2022/10/20 12:56:38;;;;;;;0.00;0.00;;;13.20;99.90;;;;;;5018835;28;20587;-73
2022/10/20 12:59:38;;;;;;;0.00;0.00;;;13.30;99.90;;;;;;5022775;28;20441;-73
2022/10/20 13:02:46;;;;;;;0.00;0.00;;;13.30;99.90;;;;;;4943645;29;20457;-73
2022/10/20 13:05:45;;;;;;;0.00;0.00;;;13.40;99.90;;;;;;5017872;28;20948;-73
2022/10/20 13:08:28;;;;;;;0.00;0.00;;;13.40;99.90;;;;;;4979298;28;21052;-73
2022/10/20 13:11:12;;;;;;;0.00;0.00;;;13.40;99.90;;;;;;5011028;28;20474;-73
2022/10/20 13:14:03;;;;;;;0.00;0.00;;;13.40;99.90;;;;;;5020880;28;20554;-73
2022/10/20 13:16:32;;;;;;;0.00;0.00;;;13.40;99.90;;;;;;5019966;28;20449;-73
2022/10/20 13:19:01;;;;;;;0.00;0.00;;;13.40;99.90;;;;;;5022130;28;20446;-72
2022/10/20 13:21:31;;;;;;;0.00;0.00;;;13.50;99.90;;;;;;5019768;28;20474;-73
2022/10/20 13:24:04;;;;;;;0.00;0.00;;;13.40;99.90;;;;;;5022516;28;20443;-73
2022/10/20 13:26:46;;;;;;;0.00;0.00;;;13.40;99.90;;;;;;5024158;28;20437;-73